sensor_id;sensor_type;location;lat;lon;timestamp;P1;durP1;ratioP1;P2;durP2;ratioP2
79371;SDS011;68914;51.262;6.802;2023-04-01T00:00:14;5.10;;;0.90;;
79371;SDS011;68914;51.262;6.802;2023-04-01T00:01:15;6.72;;;1.00;;
79371;SDS011;68914;51.262;6.802;2023-04-01T00:02:16;5.00;;;0.90;;
79371;SDS011;68914;51.262;6.802;2023-04-01T00:03:17;4.10;;;1.00;;
79371;SDS011;68914;51.262;6.802;2023-04-01T00:04:18;5.75;;;1.02;;
79371;SDS011;68914;51.262;6.802;2023-04-01T00:05:19;4.97;;;0.97;;
79371;SDS011;68914;51.262;6.802;2023-04-01T00:06:20;6.78;;;1.10;;
79371;SDS011;68914;51.262;6.802;2023-04-01T00:07:20;4.67;;;0.90;;
79371;SDS011;68914;51.262;6.802;2023-04-01T00:08:21;4.40;;;0.90;;
79371;SDS011;68914;51.262;6.802;2023-04-01T00:09:22;3.30;;;0.88;;
79371;SDS011;68914;51.262;6.802;2023-04-01T00:10:23;4.73;;;0.90;;
79371;SDS011;68914;51.262;6.802;2023-04-01T00:11:23;5.63;;;0.90;;
79371;SDS011;68914;51.262;6.802;2023-04-01T00:12:24;4.90;;;0.90;;
79371;SDS011;68914;51.262;6.802;2023-04-01T00:13:25;5.93;;;1.08;;
79371;SDS011;68914;51.262;6.802;2023-04-01T00:14:26;3.97;;;0.90;;
79371;SDS011;68914;51.262;6.802;2023-04-01T00:15:27;5.45;;;0.93;;
79371;SDS011;68914;51.262;6.802;2023-04-01T00:16:27;4.27;;;1.03;;
79371;SDS011;68914;51.262;6.802;2023-04-01T00:17:28;5.80;;;0.90;;
79371;SDS011;68914;51.262;6.802;2023-04-01T00:18:28;4.80;;;1.23;;
79371;SDS011;68914;51.262;6.802;2023-04-01T00:19:29;4.22;;;0.95;;
79371;SDS011;68914;51.262;6.802;2023-04-01T00:20:30;4.30;;;0.80;;
79371;SDS011;68914;51.262;6.802;2023-04-01T00:21:30;3.88;;;0.85;;
79371;SDS011;68914;51.262;6.802;2023-04-01T00:22:31;3.00;;;0.70;;
79371;SDS011;68914;51.262;6.802;2023-04-01T00:23:32;4.97;;;0.90;;
79371;SDS011;68914;51.262;6.802;2023-04-01T00:24:33;4.15;;;0.93;;
79371;SDS011;68914;51.262;6.802;2023-04-01T00:25:33;5.13;;;0.90;;
79371;SDS011;68914;51.262;6.802;2023-04-01T00:26:34;5.05;;;1.00;;
79371;SDS011;68914;51.262;6.802;2023-04-01T00:27:35;4.90;;;0.83;;
79371;SDS011;68914;51.262;6.802;2023-04-01T00:28:35;4.00;;;0.75;;
79371;SDS011;68914;51.262;6.802;2023-04-01T00:29:36;4.63;;;0.73;;
79371;SDS011;68914;51.262;6.802;2023-04-01T00:30:37;4.13;;;0.90;;
79371;SDS011;68914;51.262;6.802;2023-04-01T00:31:37;3.78;;;0.70;;
79371;SDS011;68914;51.262;6.802;2023-04-01T00:32:38;4.80;;;0.97;;
79371;SDS011;68914;51.262;6.802;2023-04-01T00:33:39;6.00;;;1.00;;
79371;SDS011;68914;51.262;6.802;2023-04-01T00:34:41;4.03;;;0.80;;
79371;SDS011;68914;51.262;6.802;2023-04-01T00:35:41;4.13;;;0.80;;
79371;SDS011;68914;51.262;6.802;2023-04-01T00:36:42;2.75;;;0.60;;
79371;SDS011;68914;51.262;6.802;2023-04-01T00:37:42;2.80;;;0.80;;
79371;SDS011;68914;51.262;6.802;2023-04-01T00:38:43;4.30;;;0.80;;
79371;SDS011;68914;51.262;6.802;2023-04-01T00:39:45;5.22;;;0.80;;
79371;SDS011;68914;51.262;6.802;2023-04-01T00:40:46;2.88;;;0.70;;
79371;SDS011;68914;51.262;6.802;2023-04-01T00:41:47;4.53;;;0.87;;
79371;SDS011;68914;51.262;6.802;2023-04-01T00:42:48;3.95;;;0.80;;
79371;SDS011;68914;51.262;6.802;2023-04-01T00:43:49;4.40;;;1.15;;
79371;SDS011;68914;51.262;6.802;2023-04-01T00:44:52;3.97;;;0.70;;
79371;SDS011;68914;51.262;6.802;2023-04-01T00:45:54;3.88;;;0.90;;
79371;SDS011;68914;51.262;6.802;2023-04-01T00:46:55;4.03;;;0.80;;
79371;SDS011;68914;51.262;6.802;2023-04-01T00:47:56;5.55;;;1.00;;
79371;SDS011;68914;51.262;6.802;2023-04-01T00:49:01;5.10;;;0.80;;
79371;SDS011;68914;51.262;6.802;2023-04-01T00:50:03;3.08;;;0.60;;
79371;SDS011;68914;51.262;6.802;2023-04-01T00:52:25;2.97;;;0.70;;
79371;SDS011;68914;51.262;6.802;2023-04-01T00:53:26;2.97;;;0.70;;
79371;SDS011;68914;51.262;6.802;2023-04-01T00:54:30;3.05;;;0.60;;
79371;SDS011;68914;51.262;6.802;2023-04-01T00:55:33;4.30;;;0.80;;
79371;SDS011;68914;51.262;6.802;2023-04-01T00:56:38;3.80;;;0.80;;
79371;SDS011;68914;51.262;6.802;2023-04-01T00:57:56;2.42;;;0.70;;
79371;SDS011;68914;51.262;6.802;2023-04-01T00:59:00;3.38;;;0.70;;
79371;SDS011;68914;51.262;6.802;2023-04-01T01:00:05;3.30;;;0.70;;
79371;SDS011;68914;51.262;6.802;2023-04-01T01:01:09;4.03;;;0.75;;
79371;SDS011;68914;51.262;6.802;2023-04-01T01:02:11;4.72;;;0.85;;
79371;SDS011;68914;51.262;6.802;2023-04-01T01:03:13;4.97;;;0.80;;
79371;SDS011;68914;51.262;6.802;2023-04-01T01:06:34;3.20;;;0.77;;
79371;SDS011;68914;51.262;6.802;2023-04-01T01:07:38;3.13;;;0.70;;
79371;SDS011;68914;51.262;6.802;2023-04-01T01:10:24;4.47;;;0.68;;
79371;SDS011;68914;51.262;6.802;2023-04-01T01:11:36;7.18;;;0.77;;
79371;SDS011;68914;51.262;6.802;2023-04-01T01:15:18;3.25;;;0.70;;
79371;SDS011;68914;51.262;6.802;2023-04-01T01:16:27;3.38;;;0.80;;
79371;SDS011;68914;51.262;6.802;2023-04-01T01:21:25;3.90;;;0.80;;
79371;SDS011;68914;51.262;6.802;2023-04-01T01:26:58;4.17;;;0.90;;
79371;SDS011;68914;51.262;6.802;2023-04-01T01:28:23;2.38;;;0.60;;
79371;SDS011;68914;51.262;6.802;2023-04-01T01:35:50;3.88;;;0.70;;
79371;SDS011;68914;51.262;6.802;2023-04-01T01:36:57;2.65;;;0.70;;
79371;SDS011;68914;51.262;6.802;2023-04-01T01:38:11;3.30;;;0.77;;
79371;SDS011;68914;51.262;6.802;2023-04-01T01:39:19;3.73;;;0.80;;
79371;SDS011;68914;51.262;6.802;2023-04-01T01:40:27;2.88;;;0.70;;
79371;SDS011;68914;51.262;6.802;2023-04-01T01:41:29;3.50;;;0.80;;
79371;SDS011;68914;51.262;6.802;2023-04-01T01:42:32;4.55;;;1.00;;
79371;SDS011;68914;51.262;6.802;2023-04-01T01:43:41;5.20;;;0.98;;
79371;SDS011;68914;51.262;6.802;2023-04-01T01:44:46;3.47;;;0.75;;
79371;SDS011;68914;51.262;6.802;2023-04-01T01:45:57;2.75;;;0.70;;
79371;SDS011;68914;51.262;6.802;2023-04-01T01:47:01;3.60;;;1.00;;
79371;SDS011;68914;51.262;6.802;2023-04-01T01:48:02;3.40;;;0.80;;
79371;SDS011;68914;51.262;6.802;2023-04-01T01:49:05;2.60;;;0.70;;
79371;SDS011;68914;51.262;6.802;2023-04-01T01:50:09;3.57;;;0.90;;
79371;SDS011;68914;51.262;6.802;2023-04-01T01:51:11;5.55;;;1.10;;
79371;SDS011;68914;51.262;6.802;2023-04-01T01:52:12;4.13;;;0.90;;
79371;SDS011;68914;51.262;6.802;2023-04-01T01:53:13;4.25;;;0.82;;
79371;SDS011;68914;51.262;6.802;2023-04-01T01:54:17;3.72;;;0.75;;
79371;SDS011;68914;51.262;6.802;2023-04-01T01:55:26;4.38;;;1.00;;
79371;SDS011;68914;51.262;6.802;2023-04-01T01:56:29;3.45;;;0.70;;
79371;SDS011;68914;51.262;6.802;2023-04-01T01:57:32;4.15;;;1.23;;
79371;SDS011;68914;51.262;6.802;2023-04-01T01:58:47;3.87;;;0.70;;
79371;SDS011;68914;51.262;6.802;2023-04-01T01:59:55;3.83;;;0.82;;
79371;SDS011;68914;51.262;6.802;2023-04-01T02:01:04;3.88;;;0.80;;
79371;SDS011;68914;51.262;6.802;2023-04-01T02:02:07;3.33;;;0.70;;
79371;SDS011;68914;51.262;6.802;2023-04-01T02:03:10;3.53;;;0.70;;
79371;SDS011;68914;51.262;6.802;2023-04-01T02:04:13;3.00;;;0.70;;
79371;SDS011;68914;51.262;6.802;2023-04-01T02:05:16;4.03;;;0.98;;
79371;SDS011;68914;51.262;6.802;2023-04-01T02:06:22;4.78;;;0.90;;
79371;SDS011;68914;51.262;6.802;2023-04-01T02:07:30;3.28;;;0.70;;
79371;SDS011;68914;51.262;6.802;2023-04-01T02:09:41;5.47;;;0.80;;
79371;SDS011;68914;51.262;6.802;2023-04-01T02:10:42;3.28;;;0.70;;
79371;SDS011;68914;51.262;6.802;2023-04-01T02:11:51;2.28;;;0.60;;
79371;SDS011;68914;51.262;6.802;2023-04-01T02:12:56;4.88;;;0.90;;
79371;SDS011;68914;51.262;6.802;2023-04-01T02:14:04;4.78;;;0.77;;
79371;SDS011;68914;51.262;6.802;2023-04-01T02:15:27;3.78;;;0.70;;
79371;SDS011;68914;51.262;6.802;2023-04-01T02:16:33;3.08;;;0.60;;
79371;SDS011;68914;51.262;6.802;2023-04-01T02:17:38;3.83;;;0.70;;
79371;SDS011;68914;51.262;6.802;2023-04-01T02:18:42;2.88;;;0.70;;
79371;SDS011;68914;51.262;6.802;2023-04-01T02:20:54;3.23;;;0.77;;
79371;SDS011;68914;51.262;6.802;2023-04-01T02:21:59;4.53;;;0.68;;
79371;SDS011;68914;51.262;6.802;2023-04-01T02:23:03;2.88;;;0.70;;
79371;SDS011;68914;51.262;6.802;2023-04-01T02:24:06;4.38;;;0.80;;
79371;SDS011;68914;51.262;6.802;2023-04-01T02:25:11;3.42;;;0.80;;
79371;SDS011;68914;51.262;6.802;2023-04-01T02:26:14;3.85;;;0.85;;
79371;SDS011;68914;51.262;6.802;2023-04-01T02:27:16;3.03;;;0.70;;
79371;SDS011;68914;51.262;6.802;2023-04-01T02:28:16;4.88;;;1.00;;
79371;SDS011;68914;51.262;6.802;2023-04-01T02:29:22;3.87;;;0.80;;
79371;SDS011;68914;51.262;6.802;2023-04-01T02:30:25;4.85;;;0.80;;
79371;SDS011;68914;51.262;6.802;2023-04-01T02:31:29;4.47;;;0.88;;
79371;SDS011;68914;51.262;6.802;2023-04-01T02:32:31;3.00;;;0.80;;
79371;SDS011;68914;51.262;6.802;2023-04-01T02:33:33;3.88;;;0.77;;
79371;SDS011;68914;51.262;6.802;2023-04-01T02:34:35;3.08;;;0.70;;
79371;SDS011;68914;51.262;6.802;2023-04-01T02:35:36;2.75;;;0.60;;
79371;SDS011;68914;51.262;6.802;2023-04-01T02:36:37;3.77;;;0.80;;
79371;SDS011;68914;51.262;6.802;2023-04-01T02:37:38;4.43;;;0.70;;
79371;SDS011;68914;51.262;6.802;2023-04-01T02:38:43;3.65;;;0.80;;
79371;SDS011;68914;51.262;6.802;2023-04-01T02:39:45;3.70;;;1.00;;
79371;SDS011;68914;51.262;6.802;2023-04-01T02:40:50;2.95;;;0.70;;
79371;SDS011;68914;51.262;6.802;2023-04-01T02:41:56;2.90;;;0.80;;
79371;SDS011;68914;51.262;6.802;2023-04-01T02:42:56;3.77;;;0.70;;
79371;SDS011;68914;51.262;6.802;2023-04-01T02:43:58;3.10;;;0.80;;
79371;SDS011;68914;51.262;6.802;2023-04-01T02:44:59;3.40;;;0.82;;
79371;SDS011;68914;51.262;6.802;2023-04-01T02:46:00;3.33;;;0.80;;
79371;SDS011;68914;51.262;6.802;2023-04-01T02:47:02;4.25;;;0.70;;
79371;SDS011;68914;51.262;6.802;2023-04-01T02:48:03;3.25;;;0.70;;
79371;SDS011;68914;51.262;6.802;2023-04-01T02:49:04;2.27;;;0.70;;
79371;SDS011;68914;51.262;6.802;2023-04-01T02:50:05;3.40;;;0.70;;
79371;SDS011;68914;51.262;6.802;2023-04-01T02:51:07;4.32;;;0.90;;
79371;SDS011;68914;51.262;6.802;2023-04-01T02:52:08;3.50;;;0.70;;
79371;SDS011;68914;51.262;6.802;2023-04-01T02:53:09;3.35;;;0.73;;
79371;SDS011;68914;51.262;6.802;2023-04-01T02:54:10;3.43;;;0.90;;
79371;SDS011;68914;51.262;6.802;2023-04-01T02:55:11;4.15;;;0.80;;
79371;SDS011;68914;51.262;6.802;2023-04-01T02:56:11;4.27;;;0.80;;
79371;SDS011;68914;51.262;6.802;2023-04-01T02:57:12;3.85;;;0.95;;
79371;SDS011;68914;51.262;6.802;2023-04-01T02:58:12;4.40;;;1.10;;
79371;SDS011;68914;51.262;6.802;2023-04-01T02:59:13;5.32;;;1.00;;
79371;SDS011;68914;51.262;6.802;2023-04-01T03:00:15;3.58;;;1.00;;
79371;SDS011;68914;51.262;6.802;2023-04-01T03:01:16;3.92;;;0.90;;
79371;SDS011;68914;51.262;6.802;2023-04-01T03:02:17;3.70;;;1.10;;
79371;SDS011;68914;51.262;6.802;2023-04-01T03:03:17;4.45;;;1.00;;
79371;SDS011;68914;51.262;6.802;2023-04-01T03:04:18;4.87;;;0.90;;
79371;SDS011;68914;51.262;6.802;2023-04-01T03:05:19;4.75;;;1.10;;
79371;SDS011;68914;51.262;6.802;2023-04-01T03:06:20;5.55;;;1.00;;
79371;SDS011;68914;51.262;6.802;2023-04-01T03:07:20;3.73;;;0.97;;
79371;SDS011;68914;51.262;6.802;2023-04-01T03:08:22;5.72;;;1.20;;
79371;SDS011;68914;51.262;6.802;2023-04-01T03:09:23;4.82;;;0.90;;
79371;SDS011;68914;51.262;6.802;2023-04-01T03:10:24;4.17;;;1.20;;
79371;SDS011;68914;51.262;6.802;2023-04-01T03:11:25;3.80;;;1.08;;
79371;SDS011;68914;51.262;6.802;2023-04-01T03:12:26;4.63;;;1.27;;
79371;SDS011;68914;51.262;6.802;2023-04-01T03:13:27;4.85;;;1.42;;
79371;SDS011;68914;51.262;6.802;2023-04-01T03:14:27;4.93;;;1.30;;
79371;SDS011;68914;51.262;6.802;2023-04-01T03:15:28;4.50;;;1.27;;
79371;SDS011;68914;51.262;6.802;2023-04-01T03:16:28;3.60;;;1.00;;
79371;SDS011;68914;51.262;6.802;2023-04-01T03:17:29;4.65;;;1.50;;
79371;SDS011;68914;51.262;6.802;2023-04-01T03:18:30;3.77;;;1.00;;
79371;SDS011;68914;51.262;6.802;2023-04-01T03:19:31;5.38;;;1.10;;
79371;SDS011;68914;51.262;6.802;2023-04-01T03:20:33;3.13;;;1.00;;
79371;SDS011;68914;51.262;6.802;2023-04-01T03:21:34;3.87;;;1.20;;
79371;SDS011;68914;51.262;6.802;2023-04-01T03:22:35;4.68;;;0.90;;
79371;SDS011;68914;51.262;6.802;2023-04-01T03:23:35;3.95;;;0.73;;
79371;SDS011;68914;51.262;6.802;2023-04-01T03:24:36;3.77;;;0.80;;
79371;SDS011;68914;51.262;6.802;2023-04-01T03:25:37;2.53;;;0.70;;
79371;SDS011;68914;51.262;6.802;2023-04-01T03:26:37;2.38;;;0.60;;
79371;SDS011;68914;51.262;6.802;2023-04-01T03:27:38;3.87;;;0.80;;
79371;SDS011;68914;51.262;6.802;2023-04-01T03:28:39;3.72;;;0.70;;
79371;SDS011;68914;51.262;6.802;2023-04-01T03:29:40;3.72;;;0.80;;
79371;SDS011;68914;51.262;6.802;2023-04-01T03:30:41;3.05;;;0.60;;
79371;SDS011;68914;51.262;6.802;2023-04-01T03:31:42;3.15;;;0.70;;
79371;SDS011;68914;51.262;6.802;2023-04-01T03:32:43;3.27;;;0.70;;
79371;SDS011;68914;51.262;6.802;2023-04-01T03:33:45;1.98;;;0.60;;
79371;SDS011;68914;51.262;6.802;2023-04-01T03:34:45;3.90;;;0.85;;
79371;SDS011;68914;51.262;6.802;2023-04-01T03:35:46;2.80;;;0.60;;
79371;SDS011;68914;51.262;6.802;2023-04-01T03:36:47;3.10;;;0.73;;
79371;SDS011;68914;51.262;6.802;2023-04-01T03:37:47;4.10;;;0.70;;
79371;SDS011;68914;51.262;6.802;2023-04-01T03:38:48;2.40;;;0.60;;
79371;SDS011;68914;51.262;6.802;2023-04-01T03:39:54;2.50;;;0.60;;
79371;SDS011;68914;51.262;6.802;2023-04-01T03:40:55;2.60;;;0.60;;
79371;SDS011;68914;51.262;6.802;2023-04-01T03:41:56;3.28;;;0.70;;
79371;SDS011;68914;51.262;6.802;2023-04-01T03:42:56;2.60;;;0.70;;
79371;SDS011;68914;51.262;6.802;2023-04-01T03:43:57;2.40;;;0.63;;
79371;SDS011;68914;51.262;6.802;2023-04-01T03:44:57;3.27;;;0.80;;
79371;SDS011;68914;51.262;6.802;2023-04-01T03:45:58;2.70;;;0.77;;
79371;SDS011;68914;51.262;6.802;2023-04-01T03:46:59;3.08;;;0.80;;
79371;SDS011;68914;51.262;6.802;2023-04-01T03:48:00;3.20;;;1.00;;
79371;SDS011;68914;51.262;6.802;2023-04-01T03:49:01;3.30;;;0.80;;
79371;SDS011;68914;51.262;6.802;2023-04-01T03:50:02;3.30;;;0.80;;
79371;SDS011;68914;51.262;6.802;2023-04-01T03:51:06;2.77;;;0.80;;
79371;SDS011;68914;51.262;6.802;2023-04-01T03:52:09;4.78;;;0.90;;
79371;SDS011;68914;51.262;6.802;2023-04-01T03:53:10;3.75;;;0.90;;
79371;SDS011;68914;51.262;6.802;2023-04-01T03:54:15;3.38;;;1.10;;
79371;SDS011;68914;51.262;6.802;2023-04-01T03:55:18;3.53;;;0.90;;
79371;SDS011;68914;51.262;6.802;2023-04-01T03:56:18;3.65;;;0.80;;
79371;SDS011;68914;51.262;6.802;2023-04-01T03:57:19;3.67;;;0.70;;
79371;SDS011;68914;51.262;6.802;2023-04-01T03:58:20;3.15;;;0.90;;
79371;SDS011;68914;51.262;6.802;2023-04-01T03:59:20;3.57;;;0.80;;
79371;SDS011;68914;51.262;6.802;2023-04-01T04:00:21;3.10;;;0.75;;
79371;SDS011;68914;51.262;6.802;2023-04-01T04:01:27;2.20;;;0.63;;
79371;SDS011;68914;51.262;6.802;2023-04-01T04:02:29;3.13;;;0.70;;
79371;SDS011;68914;51.262;6.802;2023-04-01T04:03:30;2.83;;;0.70;;
79371;SDS011;68914;51.262;6.802;2023-04-01T04:04:30;3.22;;;0.80;;
79371;SDS011;68914;51.262;6.802;2023-04-01T04:05:32;2.90;;;0.80;;
79371;SDS011;68914;51.262;6.802;2023-04-01T04:06:33;4.03;;;0.90;;
79371;SDS011;68914;51.262;6.802;2023-04-01T04:07:34;4.28;;;0.80;;
79371;SDS011;68914;51.262;6.802;2023-04-01T04:08:39;3.60;;;0.90;;
79371;SDS011;68914;51.262;6.802;2023-04-01T04:09:40;3.60;;;0.87;;
79371;SDS011;68914;51.262;6.802;2023-04-01T04:10:41;3.30;;;0.90;;
79371;SDS011;68914;51.262;6.802;2023-04-01T04:11:42;3.55;;;1.00;;
79371;SDS011;68914;51.262;6.802;2023-04-01T04:12:42;4.73;;;1.30;;
79371;SDS011;68914;51.262;6.802;2023-04-01T04:13:44;3.47;;;0.93;;
79371;SDS011;68914;51.262;6.802;2023-04-01T04:14:45;4.90;;;1.00;;
79371;SDS011;68914;51.262;6.802;2023-04-01T04:15:45;3.70;;;0.90;;
79371;SDS011;68914;51.262;6.802;2023-04-01T04:16:46;3.20;;;1.00;;
79371;SDS011;68914;51.262;6.802;2023-04-01T04:17:47;3.10;;;0.82;;
79371;SDS011;68914;51.262;6.802;2023-04-01T04:18:48;3.70;;;0.90;;
79371;SDS011;68914;51.262;6.802;2023-04-01T04:19:51;4.35;;;0.90;;
79371;SDS011;68914;51.262;6.802;2023-04-01T04:20:51;3.60;;;0.90;;
79371;SDS011;68914;51.262;6.802;2023-04-01T04:21:53;3.70;;;1.10;;
79371;SDS011;68914;51.262;6.802;2023-04-01T04:22:54;4.17;;;0.90;;
79371;SDS011;68914;51.262;6.802;2023-04-01T04:23:54;4.70;;;0.80;;
79371;SDS011;68914;51.262;6.802;2023-04-01T04:24:55;2.88;;;0.80;;
79371;SDS011;68914;51.262;6.802;2023-04-01T04:25:57;3.63;;;0.90;;
79371;SDS011;68914;51.262;6.802;2023-04-01T04:27:03;3.53;;;1.15;;
79371;SDS011;68914;51.262;6.802;2023-04-01T04:28:04;3.05;;;0.85;;
79371;SDS011;68914;51.262;6.802;2023-04-01T04:29:05;4.50;;;0.80;;
79371;SDS011;68914;51.262;6.802;2023-04-01T04:30:06;3.50;;;0.80;;
79371;SDS011;68914;51.262;6.802;2023-04-01T04:31:08;3.78;;;0.90;;
79371;SDS011;68914;51.262;6.802;2023-04-01T04:32:09;2.95;;;0.80;;
79371;SDS011;68914;51.262;6.802;2023-04-01T04:33:10;4.05;;;0.90;;
79371;SDS011;68914;51.262;6.802;2023-04-01T04:34:11;3.55;;;0.90;;
79371;SDS011;68914;51.262;6.802;2023-04-01T04:35:12;3.67;;;1.00;;
79371;SDS011;68914;51.262;6.802;2023-04-01T04:36:12;4.05;;;1.08;;
79371;SDS011;68914;51.262;6.802;2023-04-01T04:37:13;5.03;;;1.10;;
79371;SDS011;68914;51.262;6.802;2023-04-01T04:38:14;3.23;;;0.83;;
79371;SDS011;68914;51.262;6.802;2023-04-01T04:39:15;3.70;;;1.10;;
79371;SDS011;68914;51.262;6.802;2023-04-01T04:40:16;3.07;;;0.80;;
79371;SDS011;68914;51.262;6.802;2023-04-01T04:41:18;3.08;;;0.90;;
79371;SDS011;68914;51.262;6.802;2023-04-01T04:42:22;3.92;;;0.90;;
79371;SDS011;68914;51.262;6.802;2023-04-01T04:43:26;3.40;;;1.00;;
79371;SDS011;68914;51.262;6.802;2023-04-01T04:44:27;3.08;;;0.90;;
79371;SDS011;68914;51.262;6.802;2023-04-01T04:45:28;3.73;;;1.10;;
79371;SDS011;68914;51.262;6.802;2023-04-01T04:46:30;3.33;;;0.93;;
79371;SDS011;68914;51.262;6.802;2023-04-01T04:47:39;3.40;;;0.90;;
79371;SDS011;68914;51.262;6.802;2023-04-01T04:48:40;4.72;;;1.00;;
79371;SDS011;68914;51.262;6.802;2023-04-01T04:49:41;3.40;;;0.90;;
79371;SDS011;68914;51.262;6.802;2023-04-01T04:50:44;3.90;;;1.20;;
79371;SDS011;68914;51.262;6.802;2023-04-01T04:51:45;4.38;;;1.17;;
79371;SDS011;68914;51.262;6.802;2023-04-01T04:52:48;3.40;;;1.00;;
79371;SDS011;68914;51.262;6.802;2023-04-01T04:53:50;3.83;;;1.00;;
79371;SDS011;68914;51.262;6.802;2023-04-01T04:54:51;3.50;;;1.08;;
79371;SDS011;68914;51.262;6.802;2023-04-01T04:55:52;4.28;;;1.08;;
79371;SDS011;68914;51.262;6.802;2023-04-01T04:57:17;4.70;;;1.20;;
79371;SDS011;68914;51.262;6.802;2023-04-01T04:58:25;4.80;;;1.23;;
79371;SDS011;68914;51.262;6.802;2023-04-01T04:59:26;6.57;;;1.60;;
79371;SDS011;68914;51.262;6.802;2023-04-01T05:00:53;4.00;;;1.30;;
79371;SDS011;68914;51.262;6.802;2023-04-01T05:02:04;5.40;;;1.45;;
79371;SDS011;68914;51.262;6.802;2023-04-01T05:03:05;5.17;;;1.70;;
79371;SDS011;68914;51.262;6.802;2023-04-01T05:04:06;4.88;;;1.60;;
79371;SDS011;68914;51.262;6.802;2023-04-01T05:05:06;5.43;;;1.50;;
79371;SDS011;68914;51.262;6.802;2023-04-01T05:06:08;5.65;;;2.10;;
79371;SDS011;68914;51.262;6.802;2023-04-01T05:07:10;4.82;;;1.60;;
79371;SDS011;68914;51.262;6.802;2023-04-01T05:08:11;4.95;;;1.77;;
79371;SDS011;68914;51.262;6.802;2023-04-01T05:09:11;5.30;;;1.70;;
79371;SDS011;68914;51.262;6.802;2023-04-01T05:10:12;4.97;;;1.70;;
79371;SDS011;68914;51.262;6.802;2023-04-01T05:11:15;5.53;;;1.80;;
79371;SDS011;68914;51.262;6.802;2023-04-01T05:12:18;6.45;;;1.92;;
79371;SDS011;68914;51.262;6.802;2023-04-01T05:13:35;5.38;;;1.85;;
79371;SDS011;68914;51.262;6.802;2023-04-01T05:14:36;5.22;;;1.80;;
79371;SDS011;68914;51.262;6.802;2023-04-01T05:15:42;6.23;;;2.00;;
79371;SDS011;68914;51.262;6.802;2023-04-01T05:16:43;7.32;;;2.90;;
79371;SDS011;68914;51.262;6.802;2023-04-01T05:17:44;6.63;;;2.00;;
79371;SDS011;68914;51.262;6.802;2023-04-01T05:18:44;5.37;;;1.97;;
79371;SDS011;68914;51.262;6.802;2023-04-01T05:19:46;6.13;;;2.00;;
79371;SDS011;68914;51.262;6.802;2023-04-01T05:20:47;6.17;;;2.10;;
79371;SDS011;68914;51.262;6.802;2023-04-01T05:21:49;6.20;;;2.47;;
79371;SDS011;68914;51.262;6.802;2023-04-01T05:22:53;5.68;;;1.90;;
79371;SDS011;68914;51.262;6.802;2023-04-01T05:23:56;6.40;;;2.10;;
79371;SDS011;68914;51.262;6.802;2023-04-01T05:24:58;5.80;;;2.13;;
79371;SDS011;68914;51.262;6.802;2023-04-01T05:26:02;5.87;;;2.20;;
79371;SDS011;68914;51.262;6.802;2023-04-01T05:27:06;6.38;;;2.20;;
79371;SDS011;68914;51.262;6.802;2023-04-01T05:28:07;5.82;;;2.10;;
79371;SDS011;68914;51.262;6.802;2023-04-01T05:29:08;5.85;;;2.42;;
79371;SDS011;68914;51.262;6.802;2023-04-01T05:30:09;6.20;;;2.60;;
79371;SDS011;68914;51.262;6.802;2023-04-01T05:31:16;6.95;;;2.35;;
79371;SDS011;68914;51.262;6.802;2023-04-01T05:32:19;6.50;;;2.58;;
79371;SDS011;68914;51.262;6.802;2023-04-01T05:33:20;8.33;;;2.70;;
79371;SDS011;68914;51.262;6.802;2023-04-01T05:34:21;8.75;;;2.90;;
79371;SDS011;68914;51.262;6.802;2023-04-01T05:35:21;7.30;;;2.70;;
79371;SDS011;68914;51.262;6.802;2023-04-01T05:36:23;7.30;;;3.25;;
79371;SDS011;68914;51.262;6.802;2023-04-01T05:37:24;7.03;;;3.20;;
79371;SDS011;68914;51.262;6.802;2023-04-01T05:38:25;7.97;;;3.28;;
79371;SDS011;68914;51.262;6.802;2023-04-01T05:39:25;6.67;;;2.70;;
79371;SDS011;68914;51.262;6.802;2023-04-01T05:40:27;6.78;;;2.90;;
79371;SDS011;68914;51.262;6.802;2023-04-01T05:41:28;7.97;;;3.00;;
79371;SDS011;68914;51.262;6.802;2023-04-01T05:42:29;7.10;;;2.80;;
79371;SDS011;68914;51.262;6.802;2023-04-01T05:43:30;6.10;;;2.47;;
79371;SDS011;68914;51.262;6.802;2023-04-01T05:44:35;7.45;;;2.60;;
79371;SDS011;68914;51.262;6.802;2023-04-01T05:45:35;6.40;;;2.30;;
79371;SDS011;68914;51.262;6.802;2023-04-01T05:46:45;5.47;;;2.10;;
79371;SDS011;68914;51.262;6.802;2023-04-01T05:47:55;5.95;;;2.30;;
79371;SDS011;68914;51.262;6.802;2023-04-01T05:48:55;5.73;;;2.10;;
79371;SDS011;68914;51.262;6.802;2023-04-01T05:49:58;5.55;;;2.10;;
79371;SDS011;68914;51.262;6.802;2023-04-01T05:50:59;5.80;;;2.10;;
79371;SDS011;68914;51.262;6.802;2023-04-01T05:52:00;5.38;;;1.90;;
79371;SDS011;68914;51.262;6.802;2023-04-01T05:53:01;5.70;;;2.10;;
79371;SDS011;68914;51.262;6.802;2023-04-01T05:54:03;5.67;;;2.10;;
79371;SDS011;68914;51.262;6.802;2023-04-01T05:55:05;5.78;;;2.00;;
79371;SDS011;68914;51.262;6.802;2023-04-01T05:56:06;6.57;;;2.33;;
79371;SDS011;68914;51.262;6.802;2023-04-01T05:57:12;4.82;;;1.88;;
79371;SDS011;68914;51.262;6.802;2023-04-01T05:58:13;6.20;;;2.10;;
79371;SDS011;68914;51.262;6.802;2023-04-01T05:59:16;6.13;;;2.10;;
79371;SDS011;68914;51.262;6.802;2023-04-01T06:00:17;6.25;;;2.28;;
79371;SDS011;68914;51.262;6.802;2023-04-01T06:01:20;6.50;;;2.10;;
79371;SDS011;68914;51.262;6.802;2023-04-01T06:02:21;6.60;;;2.27;;
79371;SDS011;68914;51.262;6.802;2023-04-01T06:03:21;6.45;;;2.17;;
79371;SDS011;68914;51.262;6.802;2023-04-01T06:04:23;6.05;;;2.10;;
79371;SDS011;68914;51.262;6.802;2023-04-01T06:05:26;5.65;;;1.98;;
79371;SDS011;68914;51.262;6.802;2023-04-01T06:06:30;5.47;;;2.05;;
79371;SDS011;68914;51.262;6.802;2023-04-01T06:07:42;6.65;;;2.13;;
79371;SDS011;68914;51.262;6.802;2023-04-01T06:08:42;6.57;;;2.20;;
79371;SDS011;68914;51.262;6.802;2023-04-01T06:09:43;6.97;;;2.10;;
79371;SDS011;68914;51.262;6.802;2023-04-01T06:10:50;6.28;;;2.20;;
79371;SDS011;68914;51.262;6.802;2023-04-01T06:13:17;5.70;;;2.20;;
79371;SDS011;68914;51.262;6.802;2023-04-01T06:15:10;6.65;;;2.20;;
79371;SDS011;68914;51.262;6.802;2023-04-01T06:16:38;6.30;;;2.30;;
79371;SDS011;68914;51.262;6.802;2023-04-01T06:23:13;6.50;;;2.60;;
79371;SDS011;68914;51.262;6.802;2023-04-01T06:25:29;6.32;;;2.55;;
79371;SDS011;68914;51.262;6.802;2023-04-01T06:30:49;6.70;;;2.60;;
79371;SDS011;68914;51.262;6.802;2023-04-01T06:33:30;6.35;;;2.60;;
79371;SDS011;68914;51.262;6.802;2023-04-01T06:39:05;7.20;;;2.33;;
79371;SDS011;68914;51.262;6.802;2023-04-01T06:43:35;7.68;;;2.72;;
79371;SDS011;68914;51.262;6.802;2023-04-01T06:45:08;7.18;;;2.70;;
79371;SDS011;68914;51.262;6.802;2023-04-01T06:50:07;7.95;;;2.60;;
79371;SDS011;68914;51.262;6.802;2023-04-01T06:56:46;6.18;;;2.50;;
79371;SDS011;68914;51.262;6.802;2023-04-01T06:57:56;6.32;;;2.60;;
79371;SDS011;68914;51.262;6.802;2023-04-01T06:59:03;6.93;;;2.67;;
79371;SDS011;68914;51.262;6.802;2023-04-01T07:01:47;6.78;;;2.03;;
79371;SDS011;68914;51.262;6.802;2023-04-01T07:02:55;6.10;;;2.35;;
79371;SDS011;68914;51.262;6.802;2023-04-01T07:03:59;6.38;;;2.22;;
79371;SDS011;68914;51.262;6.802;2023-04-01T07:05:05;5.33;;;2.13;;
79371;SDS011;68914;51.262;6.802;2023-04-01T07:06:13;5.47;;;2.20;;
79371;SDS011;68914;51.262;6.802;2023-04-01T07:08:38;6.15;;;2.08;;
79371;SDS011;68914;51.262;6.802;2023-04-01T07:09:43;4.88;;;1.73;;
79371;SDS011;68914;51.262;6.802;2023-04-01T07:11:16;4.72;;;1.80;;
79371;SDS011;68914;51.262;6.802;2023-04-01T07:12:53;6.28;;;2.00;;
79371;SDS011;68914;51.262;6.802;2023-04-01T07:14:36;5.57;;;2.10;;
79371;SDS011;68914;51.262;6.802;2023-04-01T07:15:40;4.95;;;2.00;;
79371;SDS011;68914;51.262;6.802;2023-04-01T07:17:55;5.20;;;2.10;;
79371;SDS011;68914;51.262;6.802;2023-04-01T07:20:22;5.40;;;1.80;;
79371;SDS011;68914;51.262;6.802;2023-04-01T07:21:35;4.90;;;1.90;;
79371;SDS011;68914;51.262;6.802;2023-04-01T07:22:51;5.45;;;2.10;;
79371;SDS011;68914;51.262;6.802;2023-04-01T07:24:18;5.53;;;2.10;;